Time;durP1;ratioP1;P1;durP2;ratioP2;P2;SDS_P1;SDS_P2;PMS_P1;PMS_P2;Temp;Humidity;BMP_temperature;BMP_pressure;BME280_temperature;BME280_humidity;BME280_pressure;Samples;Min_cycle;Max_cycle;Signal;HPM_P1;HPM_P2
2021/05/03 00:00:55;;;;;;;1.67;0.80;;;19.50;99.90;;;;;;5032887;28;20296;-89
2021/05/03 00:03:28;;;;;;;5.00;0.90;;;19.60;99.90;;;;;;5033494;28;20351;-89
2021/05/03 00:05:58;;;;;;;1.73;0.87;;;19.60;99.90;;;;;;5033269;28;20220;-89
2021/05/03 00:08:29;;;;;;;2.70;0.90;;;19.90;99.90;;;;;;5034268;28;20209;-88
2021/05/03 00:11:00;;;;;;;3.20;0.77;;;19.80;99.90;;;;;;5033596;28;20626;-90
2021/05/03 00:13:30;;;;;;;1.13;0.57;;;19.60;99.90;;;;;;5033373;28;20217;-88
2021/05/03 00:16:01;;;;;;;2.10;0.73;;;18.00;99.90;;;;;;5033343;28;20236;-88
2021/05/03 00:18:33;;;;;;;2.37;0.90;;;18.40;99.90;;;;;;5034615;28;20278;-89
2021/05/03 00:21:04;;;;;;;1.47;0.80;;;18.40;99.90;;;;;;5034582;28;20213;-89
2021/05/03 00:23:35;;;;;;;2.07;0.73;;;18.90;99.90;;;;;;5035072;28;20584;-89
2021/05/03 00:26:07;;;;;;;1.70;0.90;;;19.30;99.90;;;;;;5032562;28;20236;-88
2021/05/03 00:28:38;;;;;;;2.77;0.90;;;19.70;99.90;;;;;;5034019;28;20258;-89
2021/05/03 00:31:08;;;;;;;2.17;0.90;;;20.20;99.90;;;;;;5017868;28;20232;-88
2021/05/03 00:33:41;;;;;;;4.73;1.20;;;20.30;99.90;;;;;;5034234;28;20209;-89
2021/05/03 00:36:12;;;;;;;1.97;0.70;;;20.50;99.90;;;;;;4997869;28;20204;-89
2021/05/03 00:38:42;;;;;;;2.57;1.10;;;20.30;99.90;;;;;;5052394;28;20212;-88
2021/05/03 00:41:12;;;;;;;3.40;0.97;;;20.30;99.90;;;;;;5050921;28;20204;-89
2021/05/03 00:43:43;;;;;;;3.27;0.80;;;20.10;99.90;;;;;;5037543;28;20209;-89
2021/05/03 00:46:18;;;;;;;2.67;0.80;;;20.20;99.90;;;;;;5035362;28;20225;-89
2021/05/03 00:48:50;;;;;;;1.93;0.93;;;20.00;99.90;;;;;;5038417;28;20210;-89
2021/05/03 00:51:21;;;;;;;2.23;0.90;;;19.70;99.90;;;;;;5037854;28;20621;-89
2021/05/03 00:53:52;;;;;;;1.67;0.77;;;19.70;99.90;;;;;;5036806;28;20267;-88
2021/05/03 00:56:23;;;;;;;3.20;0.80;;;19.80;99.90;;;;;;5035889;28;20640;-89
2021/05/03 00:58:54;;;;;;;2.00;0.87;;;19.70;99.90;;;;;;5037068;28;20298;-89
2021/05/03 01:01:25;;;;;;;2.17;0.60;;;20.10;99.90;;;;;;5036403;28;20571;-90
2021/05/03 01:03:58;;;;;;;1.67;0.80;;;20.10;99.90;;;;;;5036271;28;20232;-89
2021/05/03 01:06:28;;;;;;;2.53;1.07;;;20.10;99.90;;;;;;5019595;28;20232;-91
2021/05/03 01:08:59;;;;;;;2.60;1.00;;;20.50;99.90;;;;;;5037033;28;20240;-88
2021/05/03 01:11:30;;;;;;;3.30;1.00;;;20.90;99.90;;;;;;5020153;28;20275;-89
2021/05/03 01:14:00;;;;;;;2.33;0.90;;;21.00;99.90;;;;;;5019126;28;20263;-88
2021/05/03 01:16:31;;;;;;;1.10;0.90;;;20.90;99.90;;;;;;5035348;28;20204;-90
2021/05/03 01:19:03;;;;;;;3.43;0.87;;;20.70;99.90;;;;;;5020360;28;20308;-89
2021/05/03 01:21:35;;;;;;;2.73;0.80;;;20.90;99.90;;;;;;5039405;28;20616;-89
2021/05/03 01:24:07;;;;;;;3.00;0.70;;;21.20;99.90;;;;;;5037817;28;20197;-89
2021/05/03 01:26:37;;;;;;;2.30;0.87;;;21.40;98.90;;;;;;5036315;28;20310;-89
2021/05/03 01:29:08;;;;;;;2.70;0.90;;;21.40;99.90;;;;;;5036639;28;20223;-89
2021/05/03 01:31:39;;;;;;;3.40;0.77;;;21.40;99.50;;;;;;5036923;28;20219;-89
2021/05/03 01:34:11;;;;;;;1.20;0.90;;;21.60;98.80;;;;;;5037430;28;20209;-89
2021/05/03 01:36:46;;;;;;;2.03;0.90;;;21.80;99.50;;;;;;5035231;28;20279;-89
2021/05/03 01:39:18;;;;;;;3.57;1.20;;;20.50;98.50;;;;;;5020032;28;20642;-90
2021/05/03 01:41:49;;;;;;;5.10;1.30;;;19.10;99.40;;;;;;5036782;28;20263;-89
2021/05/03 01:44:18;;;;;;;2.40;1.10;;;19.30;99.90;;;;;;5038288;28;20267;-90
2021/05/03 01:46:49;;;;;;;3.23;0.77;;;19.90;99.90;;;;;;5036275;28;20271;-89
2021/05/03 01:49:20;;;;;;;1.13;0.77;;;20.60;99.60;;;;;;5038084;28;20201;-90
2021/05/03 01:51:52;;;;;;;2.97;1.00;;;21.20;99.70;;;;;;5036180;28;20205;-89
2021/05/03 01:54:22;;;;;;;2.23;0.67;;;21.50;98.30;;;;;;5035383;28;20212;-89
2021/05/03 01:56:53;;;;;;;3.67;1.83;;;21.20;98.60;;;;;;5035104;28;20653;-89
2021/05/03 01:59:31;;;;;;;3.53;1.00;;;20.30;98.80;;;;;;5037404;28;20223;-90
2021/05/03 02:02:01;;;;;;;1.77;1.00;;;19.00;99.70;;;;;;5035566;28;20204;-89
2021/05/03 02:04:33;;;;;;;2.60;1.23;;;18.50;99.90;;;;;;5036184;28;20201;-91
2021/05/03 02:07:05;;;;;;;3.07;1.20;;;18.20;99.90;;;;;;5036985;28;20613;-91
2021/05/03 02:09:36;;;;;;;3.20;1.30;;;18.00;99.90;;;;;;5036733;28;20243;-91
2021/05/03 02:12:08;;;;;;;3.80;1.43;;;17.60;99.90;;;;;;5039285;28;20258;-91
2021/05/03 02:14:39;;;;;;;2.47;1.40;;;17.40;99.90;;;;;;5038039;28;20551;-92
2021/05/03 02:17:10;;;;;;;2.73;1.20;;;17.10;99.90;;;;;;5036036;28;20205;-92
2021/05/03 02:19:42;;;;;;;2.73;1.23;;;16.90;99.90;;;;;;5036486;28;20216;-91
2021/05/03 02:22:14;;;;;;;3.97;1.00;;;16.90;99.90;;;;;;5035709;28;20280;-91
2021/05/03 02:24:45;;;;;;;2.30;1.10;;;16.70;99.90;;;;;;5035893;28;20628;-92
2021/05/03 02:27:16;;;;;;;4.23;1.33;;;16.30;99.90;;;;;;5035472;28;20260;-92
2021/05/03 02:29:46;;;;;;;3.93;0.97;;;16.10;99.90;;;;;;5035595;28;20263;-91
2021/05/03 02:32:17;;;;;;;3.73;1.20;;;16.00;99.90;;;;;;5018432;28;20213;-92
2021/05/03 02:34:48;;;;;;;1.77;1.00;;;15.90;99.90;;;;;;5035745;28;20224;-91
2021/05/03 02:37:21;;;;;;;3.20;1.00;;;15.80;99.90;;;;;;5035092;28;20292;-91
2021/05/03 02:39:52;;;;;;;2.03;0.70;;;15.60;99.90;;;;;;5035420;28;20212;-91
2021/05/03 02:42:23;;;;;;;2.47;1.00;;;15.50;99.90;;;;;;5019172;28;20609;-91
2021/05/03 02:44:54;;;;;;;2.67;0.90;;;15.30;99.90;;;;;;5035424;28;20247;-92
2021/05/03 02:47:24;;;;;;;3.63;1.00;;;15.20;99.90;;;;;;5038058;28;20239;-91
2021/05/03 02:49:56;;;;;;;2.97;0.90;;;15.00;99.90;;;;;;5036528;28;20272;-90
2021/05/03 02:52:29;;;;;;;1.53;1.00;;;15.00;99.90;;;;;;5036518;28;20294;-89
2021/05/03 02:54:59;;;;;;;1.17;0.87;;;14.80;99.90;;;;;;5042339;28;20263;-90
2021/05/03 02:57:30;;;;;;;2.50;1.07;;;14.70;99.90;;;;;;5053857;28;20201;-90
2021/05/03 03:00:01;;;;;;;2.17;0.90;;;14.60;99.90;;;;;;5039622;28;20193;-91
2021/05/03 03:02:32;;;;;;;3.20;1.00;;;14.50;99.90;;;;;;5052750;28;20205;-90
2021/05/03 03:05:02;;;;;;;2.27;1.10;;;14.30;99.90;;;;;;5047217;28;20231;-91
2021/05/03 03:07:35;;;;;;;2.07;1.07;;;14.20;99.90;;;;;;5038105;28;20323;-91
2021/05/03 03:10:07;;;;;;;1.67;1.00;;;14.20;99.90;;;;;;5037042;28;20220;-90
2021/05/03 03:12:38;;;;;;;4.67;1.17;;;14.10;99.90;;;;;;5035277;28;20263;-91
2021/05/03 03:15:10;;;;;;;3.47;1.00;;;13.90;99.90;;;;;;5015382;28;20214;-91
2021/05/03 03:17:41;;;;;;;4.40;1.27;;;13.80;99.90;;;;;;5015970;28;20220;-91
2021/05/03 03:20:12;;;;;;;3.47;1.60;;;13.70;99.90;;;;;;5015989;28;20606;-91
2021/05/03 03:22:43;;;;;;;2.60;1.90;;;13.70;99.90;;;;;;5015508;28;20284;-91
2021/05/03 03:25:15;;;;;;;7.20;2.63;;;13.50;99.90;;;;;;5015407;28;20315;-91
2021/05/03 03:27:44;;;;;;;3.93;1.90;;;13.50;99.90;;;;;;5015840;28;20253;-90
2021/05/03 03:30:16;;;;;;;2.73;1.60;;;13.30;99.90;;;;;;5015892;28;20213;-91
2021/05/03 03:32:50;;;;;;;3.20;1.40;;;13.20;99.90;;;;;;5016925;28;20206;-90
2021/05/03 03:35:22;;;;;;;5.73;1.50;;;13.10;99.90;;;;;;5015552;28;20205;-90
2021/05/03 03:37:55;;;;;;;3.07;1.50;;;13.00;99.90;;;;;;5015694;28;20332;-90
2021/05/03 03:40:26;;;;;;;3.30;1.83;;;13.00;99.90;;;;;;5014056;28;20209;-90
2021/05/03 03:42:56;;;;;;;4.27;1.83;;;13.00;99.90;;;;;;5013531;28;20286;-90
2021/05/03 03:45:28;;;;;;;5.20;2.10;;;12.90;99.90;;;;;;5018747;28;20212;-91
2021/05/03 03:47:58;;;;;;;6.27;2.00;;;12.80;99.90;;;;;;5018236;28;20237;-90
2021/05/03 03:50:29;;;;;;;3.00;1.80;;;12.70;99.90;;;;;;5035917;28;20193;-91
2021/05/03 03:53:00;;;;;;;2.73;2.03;;;12.50;99.90;;;;;;5039241;28;20209;-91
2021/05/03 03:55:31;;;;;;;6.60;2.17;;;12.40;99.90;;;;;;5038162;28;20197;-91
2021/05/03 03:58:06;;;;;;;2.93;1.97;;;12.30;99.90;;;;;;5039731;28;20236;-91
2021/05/03 04:00:37;;;;;;;3.57;2.97;;;12.30;99.90;;;;;;5037169;28;20267;-91
2021/05/03 04:03:10;;;;;;;4.00;3.20;;;12.30;99.90;;;;;;5039591;28;20240;-90
2021/05/03 04:05:59;;;;;;;8.60;4.67;;;12.20;99.90;;;;;;5038270;28;20220;-91
2021/05/03 04:08:42;;;;;;;6.23;4.30;;;12.20;99.90;;;;;;5037057;28;20640;-89
2021/05/03 04:11:23;;;;;;;6.87;5.00;;;12.10;99.90;;;;;;5039490;28;20228;-90
2021/05/03 04:14:15;;;;;;;5.43;3.97;;;12.00;99.90;;;;;;5023324;28;20251;-91
2021/05/03 04:25:22;;;;;;;7.87;5.70;;;11.80;99.90;;;;;;5041939;28;20209;-93
2021/05/03 04:27:52;;;;;;;10.00;7.47;;;11.80;99.90;;;;;;5055247;28;20224;-92
2021/05/03 04:30:23;;;;;;;8.87;7.37;;;11.80;99.90;;;;;;5046160;28;20231;-92
2021/05/03 04:32:54;;;;;;;11.53;9.33;;;11.60;99.90;;;;;;5061480;28;20274;-91
2021/05/03 04:35:26;;;;;;;12.40;9.70;;;11.50;99.90;;;;;;5060106;28;20571;-91
2021/05/03 04:38:00;;;;;;;13.53;8.67;;;11.40;99.90;;;;;;5060984;28;20208;-91
2021/05/03 04:40:32;;;;;;;8.40;7.50;;;11.40;99.90;;;;;;5060614;28;20244;-91
2021/05/03 04:43:06;;;;;;;8.60;6.17;;;11.30;99.90;;;;;;5061060;28;20223;-91
2021/05/03 04:45:39;;;;;;;8.57;6.70;;;11.30;99.90;;;;;;5061100;28;20250;-92
2021/05/03 04:48:11;;;;;;;11.03;6.37;;;11.30;99.90;;;;;;5063550;28;20680;-91
2021/05/03 04:50:46;;;;;;;8.67;6.20;;;11.30;99.90;;;;;;5062264;28;20206;-91
2021/05/03 04:53:17;;;;;;;7.33;5.20;;;11.30;99.90;;;;;;5045020;28;20234;-91
2021/05/03 04:55:52;;;;;;;7.50;5.47;;;11.30;99.90;;;;;;5061116;28;20208;-91
2021/05/03 04:58:23;;;;;;;8.30;5.13;;;11.20;99.90;;;;;;5060765;28;20219;-91
2021/05/03 05:00:53;;;;;;;6.83;4.70;;;11.10;99.90;;;;;;5060742;28;20200;-90
2021/05/03 05:03:26;;;;;;;5.80;3.87;;;11.10;99.90;;;;;;5061755;28;20227;-90
2021/05/03 05:05:58;;;;;;;4.87;4.37;;;11.20;99.90;;;;;;5063617;28;20238;-92
2021/05/03 05:08:30;;;;;;;6.53;4.33;;;11.20;99.90;;;;;;5062292;28;20250;-92
2021/05/03 05:11:03;;;;;;;5.60;4.47;;;11.30;99.90;;;;;;5055964;28;20213;-90
2021/05/03 05:13:34;;;;;;;7.53;4.33;;;11.30;99.90;;;;;;5053564;28;20201;-91
2021/05/03 05:16:06;;;;;;;7.00;4.07;;;11.30;99.90;;;;;;5048355;28;20201;-91
2021/05/03 05:18:37;;;;;;;4.40;3.03;;;11.30;99.90;;;;;;5046198;28;20284;-91
2021/05/03 05:21:08;;;;;;;5.70;3.10;;;11.40;99.90;;;;;;5042391;28;20311;-92
2021/05/03 05:23:39;;;;;;;4.37;2.97;;;11.40;99.90;;;;;;5027748;28;20233;-91
2021/05/03 05:26:11;;;;;;;4.03;2.73;;;11.40;99.90;;;;;;5040823;28;20283;-91
2021/05/03 05:28:42;;;;;;;3.53;2.83;;;11.50;99.90;;;;;;5043923;28;20256;-92
2021/05/03 05:31:12;;;;;;;4.13;2.80;;;11.50;99.90;;;;;;5045088;28;20244;-91
2021/05/03 05:33:43;;;;;;;4.37;2.73;;;11.50;99.90;;;;;;5042663;28;20235;-91
2021/05/03 05:36:12;;;;;;;3.80;2.30;;;11.60;99.90;;;;;;5043348;28;20292;-91
2021/05/03 05:38:42;;;;;;;3.43;2.43;;;11.60;99.90;;;;;;5039991;28;20223;-91
2021/05/03 05:41:14;;;;;;;4.57;2.57;;;11.60;99.90;;;;;;5045528;28;20204;-91
2021/05/03 05:43:44;;;;;;;3.70;2.30;;;11.60;99.90;;;;;;5046111;28;20229;-91
2021/05/03 05:46:18;;;;;;;3.10;1.93;;;11.60;99.90;;;;;;5046532;28;20205;-91
2021/05/03 05:48:49;;;;;;;5.00;2.00;;;11.60;99.90;;;;;;5045612;28;20255;-89
2021/05/03 05:51:19;;;;;;;2.93;1.90;;;11.50;99.90;;;;;;5044694;28;20209;-89
2021/05/03 05:53:49;;;;;;;4.27;2.00;;;11.50;99.90;;;;;;5044298;28;20207;-89
2021/05/03 05:56:21;;;;;;;3.67;2.10;;;11.50;99.90;;;;;;5043394;28;20626;-90
2021/05/03 05:58:52;;;;;;;4.10;2.43;;;11.50;99.90;;;;;;5042774;28;20205;-90
2021/05/03 06:01:24;;;;;;;4.60;2.53;;;11.60;99.90;;;;;;5040977;28;20259;-90
2021/05/03 06:03:55;;;;;;;6.23;2.13;;;11.50;99.90;;;;;;5044433;28;20255;-89
2021/05/03 06:06:26;;;;;;;4.37;2.07;;;11.50;99.90;;;;;;5035456;28;20326;-90
2021/05/03 06:08:56;;;;;;;4.30;2.00;;;11.50;99.90;;;;;;5035774;28;20311;-90
2021/05/03 06:11:29;;;;;;;5.87;2.30;;;11.40;99.90;;;;;;5036111;28;20240;-90
2021/05/03 06:14:00;;;;;;;4.70;2.10;;;11.30;99.90;;;;;;5035916;28;20204;-91
2021/05/03 06:16:30;;;;;;;3.30;2.10;;;11.30;99.90;;;;;;5035576;28;20212;-91
2021/05/03 06:19:01;;;;;;;5.13;2.43;;;11.30;99.90;;;;;;5038518;28;20205;-90
2021/05/03 06:21:32;;;;;;;3.83;2.23;;;11.30;99.90;;;;;;5035740;28;20296;-90
2021/05/03 06:24:03;;;;;;;5.10;2.33;;;11.20;99.90;;;;;;5035491;28;20212;-90
2021/05/03 06:26:35;;;;;;;4.60;2.30;;;11.10;99.90;;;;;;5038290;28;20403;-91
2021/05/03 06:29:06;;;;;;;5.83;2.20;;;11.10;99.90;;;;;;5035377;28;20229;-91
2021/05/03 06:31:37;;;;;;;5.07;2.20;;;11.10;99.90;;;;;;5035633;28;20256;-90
2021/05/03 06:34:07;;;;;;;4.60;2.00;;;10.90;99.90;;;;;;5035431;28;20244;-90
2021/05/03 06:36:37;;;;;;;4.67;1.90;;;10.90;99.90;;;;;;5034778;28;20217;-90
2021/05/03 06:39:08;;;;;;;3.67;2.30;;;10.80;99.90;;;;;;5039393;28;20329;-90
2021/05/03 06:41:41;;;;;;;6.03;2.00;;;10.80;99.90;;;;;;5036332;28;20208;-90
2021/05/03 06:44:12;;;;;;;3.30;1.60;;;10.80;99.90;;;;;;5041869;28;20208;-90
2021/05/03 06:46:42;;;;;;;2.80;1.57;;;10.70;99.90;;;;;;5043762;28;20207;-89
2021/05/03 06:49:13;;;;;;;4.50;1.77;;;10.70;99.90;;;;;;5028266;28;20203;-89
2021/05/03 06:51:44;;;;;;;4.77;1.80;;;10.60;99.90;;;;;;5034958;28;20209;-90
2021/05/03 06:54:16;;;;;;;3.23;1.50;;;10.60;99.90;;;;;;5035386;28;20213;-90
2021/05/03 06:56:48;;;;;;;2.40;1.40;;;10.40;99.90;;;;;;5034492;28;20270;-90
2021/05/03 06:59:19;;;;;;;3.83;1.50;;;10.30;99.90;;;;;;5035355;28;20254;-90
2021/05/03 07:01:50;;;;;;;4.67;1.73;;;10.20;99.90;;;;;;5034776;28;20243;-90
2021/05/03 07:04:21;;;;;;;3.43;1.60;;;10.20;99.90;;;;;;5034639;28;20571;-90
2021/05/03 07:06:52;;;;;;;3.10;1.50;;;10.10;99.90;;;;;;5034357;28;20205;-91
2021/05/03 07:09:22;;;;;;;2.87;1.53;;;10.10;99.90;;;;;;5035296;28;20240;-91
2021/05/03 07:11:56;;;;;;;4.40;1.33;;;10.10;99.90;;;;;;5035023;28;20247;-91
2021/05/03 07:14:27;;;;;;;3.10;1.60;;;10.10;99.90;;;;;;5020563;28;20209;-91
2021/05/03 07:16:57;;;;;;;4.03;1.70;;;10.00;99.90;;;;;;5036415;28;20299;-91
2021/05/03 07:19:28;;;;;;;3.33;1.50;;;9.90;99.90;;;;;;5034853;28;20247;-90
2021/05/03 07:21:59;;;;;;;3.93;1.40;;;9.90;99.90;;;;;;5034665;28;20560;-91
2021/05/03 07:24:30;;;;;;;11.30;1.70;;;9.80;99.90;;;;;;5034750;28;20504;-90
2021/05/03 07:27:03;;;;;;;6.27;1.60;;;9.80;99.90;;;;;;5033795;28;20233;-90
2021/05/03 07:29:33;;;;;;;3.27;1.70;;;9.70;99.90;;;;;;5034867;28;20626;-91
2021/05/03 07:32:04;;;;;;;3.13;2.00;;;9.70;99.90;;;;;;5034963;28;20226;-90
2021/05/03 07:34:37;;;;;;;5.00;1.67;;;9.60;99.90;;;;;;5040177;28;20232;-89
2021/05/03 07:37:08;;;;;;;3.83;1.70;;;9.60;99.90;;;;;;5049900;28;20223;-90
2021/05/03 07:39:38;;;;;;;4.50;1.73;;;9.50;99.90;;;;;;5055264;28;20196;-90
2021/05/03 07:42:11;;;;;;;4.33;1.67;;;9.40;99.90;;;;;;5048797;28;20205;-89
2021/05/03 07:45:02;;;;;;;4.90;1.43;;;9.40;99.90;;;;;;5034505;28;20211;-89
2021/05/03 07:47:33;;;;;;;3.73;1.50;;;9.30;99.90;;;;;;5034118;28;20681;-89
2021/05/03 07:50:04;;;;;;;3.27;1.90;;;9.30;99.90;;;;;;5034593;28;20662;-90
2021/05/03 07:52:35;;;;;;;3.73;2.07;;;9.20;99.90;;;;;;5017642;28;20217;-90
2021/05/03 07:55:08;;;;;;;6.70;1.70;;;9.20;99.90;;;;;;5034020;28;20213;-89
2021/05/03 07:57:40;;;;;;;3.73;1.60;;;9.20;99.90;;;;;;5018996;28;20204;-90
2021/05/03 08:00:12;;;;;;;5.23;2.17;;;9.20;99.90;;;;;;5038344;28;20613;-89
2021/05/03 08:02:42;;;;;;;6.13;1.80;;;9.10;99.90;;;;;;5038197;28;20232;-89
2021/05/03 08:05:12;;;;;;;7.87;1.87;;;9.10;99.90;;;;;;5037629;28;20299;-90
2021/05/03 08:07:44;;;;;;;5.60;2.00;;;9.00;99.90;;;;;;5037477;28;20232;-90
2021/05/03 08:10:15;;;;;;;4.53;2.07;;;9.00;99.90;;;;;;5038401;28;20208;-90
2021/05/03 08:12:48;;;;;;;5.20;1.80;;;8.90;99.90;;;;;;5021427;28;20226;-90
2021/05/03 08:15:22;;;;;;;5.07;1.63;;;8.80;99.90;;;;;;5038140;28;20315;-90
2021/05/03 08:17:53;;;;;;;6.53;2.10;;;8.70;99.90;;;;;;5038389;28;20303;-90
2021/05/03 08:20:24;;;;;;;4.47;1.70;;;8.70;99.90;;;;;;5038181;28;20205;-91
2021/05/03 08:22:54;;;;;;;5.53;2.10;;;8.70;99.90;;;;;;5037954;28;20255;-91
2021/05/03 08:25:26;;;;;;;5.53;1.90;;;8.70;99.90;;;;;;5037228;28;20211;-91
2021/05/03 08:28:00;;;;;;;4.27;1.40;;;8.70;99.90;;;;;;5020789;28;20262;-90
2021/05/03 08:30:31;;;;;;;5.07;1.70;;;8.80;99.90;;;;;;5037613;28;20208;-91
2021/05/03 08:33:01;;;;;;;3.27;2.00;;;8.70;99.90;;;;;;5037672;28;20649;-90
2021/05/03 08:35:32;;;;;;;4.80;1.70;;;8.60;99.90;;;;;;5036923;28;20213;-90
2021/05/03 08:38:03;;;;;;;6.50;1.80;;;8.50;99.90;;;;;;5037346;28;20346;-90
2021/05/03 08:40:35;;;;;;;2.77;1.37;;;8.50;99.90;;;;;;5037367;28;20251;-90
2021/05/03 08:43:07;;;;;;;5.03;1.97;;;8.50;99.90;;;;;;5037527;28;20207;-90
2021/05/03 08:45:39;;;;;;;4.87;1.97;;;8.50;99.90;;;;;;5036490;28;20216;-90
2021/05/03 08:48:15;;;;;;;6.10;1.87;;;8.50;99.90;;;;;;5037248;28;20231;-90
2021/05/03 08:50:57;;;;;;;5.67;2.00;;;8.40;99.90;;;;;;5036642;28;20204;-90
2021/05/03 08:53:31;;;;;;;3.43;1.93;;;8.40;99.90;;;;;;5036807;28;20213;-89
2021/05/03 08:56:02;;;;;;;4.43;1.90;;;8.40;99.90;;;;;;5037052;28;20242;-90
2021/05/03 08:58:39;;;;;;;7.17;2.73;;;8.50;99.90;;;;;;5037084;28;20216;-90
2021/05/03 09:01:09;;;;;;;6.03;2.00;;;8.40;99.90;;;;;;5037227;28;20231;-90
2021/05/03 09:03:43;;;;;;;6.37;1.90;;;8.40;99.90;;;;;;5037392;28;20209;-89
2021/05/03 09:06:14;;;;;;;3.40;1.60;;;8.40;99.90;;;;;;5036844;28;20223;-90
2021/05/03 09:08:45;;;;;;;4.93;1.70;;;8.40;99.90;;;;;;5036987;28;20264;-90
2021/05/03 09:11:17;;;;;;;3.13;1.30;;;8.30;99.90;;;;;;5044940;28;20201;-90
2021/05/03 09:13:50;;;;;;;2.23;1.47;;;8.30;99.90;;;;;;5031886;28;20239;-90
2021/05/03 09:16:23;;;;;;;4.63;1.80;;;8.30;99.90;;;;;;5038884;28;20258;-90
2021/05/03 09:18:53;;;;;;;5.77;1.80;;;8.30;99.90;;;;;;5036759;28;20223;-90
2021/05/03 09:21:27;;;;;;;6.67;2.40;;;8.20;99.90;;;;;;5035963;28;20272;-90
2021/05/03 09:24:08;;;;;;;2.83;1.77;;;8.20;99.90;;;;;;4687392;28;10000357;-91
2021/05/03 09:26:44;;;;;;;4.40;1.90;;;8.10;99.90;;;;;;5034517;28;20279;-90
2021/05/03 09:29:36;;;;;;;4.90;1.60;;;8.20;99.90;;;;;;5035852;28;20259;-90
2021/05/03 09:32:13;;;;;;;3.97;1.83;;;8.10;99.90;;;;;;5016200;28;20278;-90
2021/05/03 09:34:45;;;;;;;3.53;1.40;;;8.10;99.90;;;;;;5023994;28;20307;-90
2021/05/03 09:37:30;;;;;;;3.57;1.30;;;8.20;99.90;;;;;;5036169;28;20283;-90
2021/05/03 09:40:06;;;;;;;4.63;1.57;;;8.20;99.90;;;;;;5036473;28;20208;-89
2021/05/03 09:42:45;;;;;;;5.07;1.30;;;8.20;99.90;;;;;;5036538;28;20204;-90
2021/05/03 09:45:19;;;;;;;4.23;1.73;;;8.30;99.90;;;;;;5035465;28;20212;-88
2021/05/03 09:47:52;;;;;;;4.63;1.90;;;8.30;99.90;;;;;;5036382;28;20232;-88
2021/05/03 09:50:24;;;;;;;3.13;1.63;;;8.30;99.90;;;;;;5036322;28;20205;-89
2021/05/03 09:53:08;;;;;;;3.53;1.50;;;8.40;99.90;;;;;;5047153;28;20236;-89
2021/05/03 09:55:43;;;;;;;2.60;1.47;;;8.40;99.90;;;;;;5048414;28;20216;-89
2021/05/03 09:58:19;;;;;;;3.07;1.40;;;8.40;99.90;;;;;;5047364;28;20663;-90
2021/05/03 10:00:52;;;;;;;2.43;1.40;;;8.40;99.90;;;;;;5036186;28;20668;-89
2021/05/03 10:03:36;;;;;;;2.40;1.30;;;8.40;99.90;;;;;;5035419;28;20244;-89
2021/05/03 10:06:09;;;;;;;4.23;2.17;;;8.30;99.90;;;;;;5035513;28;20234;-90
2021/05/03 10:08:40;;;;;;;1.80;1.37;;;8.40;99.90;;;;;;5035699;28;20237;-90
2021/05/03 10:11:15;;;;;;;1.97;1.30;;;8.40;99.90;;;;;;5035648;28;20260;-90
2021/05/03 10:13:51;;;;;;;3.00;1.30;;;8.40;99.90;;;;;;5036198;28;20216;-89
2021/05/03 10:16:26;;;;;;;2.50;1.20;;;8.40;99.90;;;;;;5034564;28;20299;-90
2021/05/03 10:18:57;;;;;;;1.90;1.43;;;8.50;99.90;;;;;;5037364;28;20296;-90
2021/05/03 10:21:28;;;;;;;2.43;1.57;;;8.60;99.90;;;;;;5037834;28;20788;-90
2021/05/03 10:23:59;;;;;;;3.67;1.30;;;8.60;99.90;;;;;;5034554;28;20215;-89
2021/05/03 10:26:31;;;;;;;2.97;1.53;;;8.60;99.90;;;;;;5034142;28;20227;-89
2021/05/03 10:29:03;;;;;;;2.77;1.53;;;8.60;99.90;;;;;;5039011;28;20233;-90
2021/05/03 10:32:08;;;;;;;2.47;1.20;;;8.60;99.90;;;;;;5018020;28;20216;-90
2021/05/03 10:34:51;;;;;;;3.93;1.60;;;8.60;99.90;;;;;;5020227;28;20211;-90
2021/05/03 10:37:52;;;;;;;3.47;1.50;;;8.60;99.90;;;;;;5035165;28;20208;-89
2021/05/03 10:40:52;;;;;;;3.07;1.33;;;8.60;99.90;;;;;;5036932;28;20209;-89
2021/05/03 10:43:29;;;;;;;3.47;1.80;;;8.70;99.90;;;;;;5034817;28;20216;-89
2021/05/03 10:48:58;;;;;;;3.03;1.63;;;8.70;99.90;;;;;;5030190;28;20335;-90
2021/05/03 10:51:50;;;;;;;2.77;1.30;;;8.60;99.90;;;;;;5034890;28;20201;-89
2021/05/03 10:54:45;;;;;;;3.07;1.70;;;8.70;99.90;;;;;;5035185;28;20216;-89
2021/05/03 10:57:36;;;;;;;3.03;1.40;;;8.70;99.90;;;;;;5017604;28;20677;-90
2021/05/03 11:00:13;;;;;;;1.77;1.40;;;8.70;99.90;;;;;;5034740;28;20198;-90
2021/05/03 11:02:48;;;;;;;3.60;1.70;;;8.60;99.90;;;;;;5034744;28;20286;-90
2021/05/03 11:05:29;;;;;;;3.63;1.33;;;8.60;99.90;;;;;;5033810;28;20620;-90
2021/05/03 11:08:32;;;;;;;2.93;1.47;;;8.50;99.90;;;;;;5034503;28;20229;-89
2021/05/03 11:11:13;;;;;;;3.90;1.37;;;8.50;99.90;;;;;;5034042;28;20261;-90
2021/05/03 11:14:11;;;;;;;4.37;1.50;;;8.50;99.90;;;;;;5034437;28;20251;-89
2021/05/03 11:17:05;;;;;;;1.90;1.10;;;8.50;99.90;;;;;;5032448;28;20620;-90
2021/05/03 11:19:50;;;;;;;4.03;1.40;;;8.50;99.90;;;;;;5034002;28;20219;-90
2021/05/03 11:22:25;;;;;;;1.47;1.27;;;8.50;99.90;;;;;;5034123;28;20309;-90
2021/05/03 11:24:59;;;;;;;3.07;1.27;;;8.50;99.90;;;;;;5033460;28;20663;-90
2021/05/03 11:27:39;;;;;;;2.40;1.10;;;8.50;99.90;;;;;;5034044;28;20275;-89
2021/05/03 11:30:14;;;;;;;3.00;1.20;;;8.50;99.90;;;;;;5017876;28;20254;-90
2021/05/03 11:32:47;;;;;;;1.87;1.20;;;8.50;99.90;;;;;;5033690;28;20234;-91
2021/05/03 11:38:08;;;;;;;1.63;1.13;;;8.50;99.90;;;;;;5031516;28;20207;-88
2021/05/03 11:40:54;;;;;;;3.13;1.13;;;8.50;99.90;;;;;;5033998;28;20298;-89
2021/05/03 11:43:49;;;;;;;3.43;1.00;;;8.60;99.90;;;;;;5033905;28;20714;-89
2021/05/03 11:46:31;;;;;;;3.40;1.10;;;8.60;99.90;;;;;;5016202;28;20717;-89
2021/05/03 11:49:14;;;;;;;3.10;1.20;;;8.60;99.90;;;;;;5034627;28;20232;-89
2021/05/03 11:51:49;;;;;;;4.47;1.23;;;8.60;99.90;;;;;;5035241;28;20247;-89
2021/05/03 11:54:29;;;;;;;3.00;1.00;;;8.70;99.90;;;;;;5034270;28;20259;-89
2021/05/03 11:57:02;;;;;;;2.23;0.93;;;8.70;99.90;;;;;;5033370;28;20273;-89
2021/05/03 11:59:34;;;;;;;1.53;1.10;;;8.70;99.90;;;;;;5034072;28;20658;-88
2021/05/03 12:02:06;;;;;;;1.20;0.90;;;8.80;99.90;;;;;;5034256;28;20581;-88
2021/05/03 12:04:40;;;;;;;3.40;1.03;;;8.80;99.90;;;;;;5034396;28;20212;-89
2021/05/03 12:07:20;;;;;;;3.17;1.20;;;8.80;99.90;;;;;;5035040;28;20209;-89
2021/05/03 12:10:05;;;;;;;3.00;1.20;;;8.70;99.90;;;;;;5048217;28;20204;-90
2021/05/03 12:12:37;;;;;;;1.67;0.93;;;8.70;99.90;;;;;;5047310;28;20239;-90
2021/05/03 12:15:10;;;;;;;2.37;1.13;;;8.70;99.90;;;;;;5040894;28;20581;-90
2021/05/03 12:17:40;;;;;;;2.50;1.10;;;8.70;99.90;;;;;;5038065;28;20223;-90
2021/05/03 12:20:13;;;;;;;2.43;1.10;;;8.80;99.90;;;;;;5035465;28;20618;-90
2021/05/03 12:22:56;;;;;;;3.00;1.30;;;8.50;99.90;;;;;;5036992;28;20231;-90
2021/05/03 12:25:31;;;;;;;2.30;0.90;;;8.50;99.90;;;;;;5035207;28;20208;-91
2021/05/03 12:28:02;;;;;;;2.87;1.13;;;8.40;99.90;;;;;;5036943;28;20232;-89
2021/05/03 12:30:33;;;;;;;2.83;1.10;;;8.40;99.90;;;;;;5017706;28;20213;-89
2021/05/03 12:33:10;;;;;;;2.30;1.20;;;8.40;99.90;;;;;;5034591;28;20215;-90
2021/05/03 12:35:40;;;;;;;2.37;0.83;;;8.40;99.90;;;;;;5033896;28;20721;-89
2021/05/03 12:38:19;;;;;;;2.23;1.13;;;8.40;99.90;;;;;;5035156;28;20220;-89
2021/05/03 12:40:51;;;;;;;3.23;1.20;;;8.50;99.90;;;;;;5033816;28;20697;-89
2021/05/03 12:43:29;;;;;;;2.93;1.17;;;8.50;99.90;;;;;;5036114;28;20227;-89
2021/05/03 12:46:05;;;;;;;2.93;1.17;;;8.50;99.90;;;;;;5036422;28;20240;-89
2021/05/03 12:48:41;;;;;;;1.87;1.10;;;8.50;99.90;;;;;;5039912;28;20278;-89
2021/05/03 12:51:21;;;;;;;4.03;1.33;;;8.50;99.90;;;;;;5030636;28;20664;-89
2021/05/03 12:54:02;;;;;;;1.33;1.10;;;8.40;99.90;;;;;;5039355;28;20235;-89
2021/05/03 12:56:40;;;;;;;1.80;1.00;;;8.40;99.90;;;;;;5038336;28;20230;-90
2021/05/03 12:59:20;;;;;;;2.43;0.90;;;8.40;99.90;;;;;;5039102;28;20695;-90
2021/05/03 13:02:00;;;;;;;3.17;0.93;;;8.40;99.90;;;;;;5021375;28;20221;-89
2021/05/03 13:04:37;;;;;;;2.87;1.43;;;8.30;99.90;;;;;;5038918;28;20216;-89
2021/05/03 13:10:33;;;;;;;2.10;1.33;;;8.30;99.90;;;;;;5028101;28;20281;-90
2021/05/03 13:30:30;;;;;;;2.77;1.40;;;8.40;99.90;;;;;;4956294;29;20226;-90
2021/05/03 13:33:01;;;;;;;1.67;1.00;;;8.40;99.90;;;;;;5020949;28;20255;-91
2021/05/03 13:35:34;;;;;;;3.90;1.20;;;8.50;99.90;;;;;;5035396;28;20233;-90
2021/05/03 13:38:05;;;;;;;1.57;1.10;;;8.40;99.90;;;;;;5036379;28;20292;-90
2021/05/03 13:40:36;;;;;;;4.20;1.20;;;8.40;99.90;;;;;;5035871;28;20215;-90
2021/05/03 13:43:07;;;;;;;2.10;1.07;;;8.40;99.90;;;;;;5036825;28;20209;-90
2021/05/03 13:45:39;;;;;;;1.93;1.30;;;8.40;99.90;;;;;;5035649;28;20244;-89
2021/05/03 13:48:10;;;;;;;4.30;1.30;;;8.40;99.90;;;;;;5036280;28;20233;-89
2021/05/03 13:50:41;;;;;;;2.87;1.30;;;8.40;99.90;;;;;;5035845;28;20303;-89
2021/05/03 13:53:12;;;;;;;2.80;1.47;;;8.40;99.90;;;;;;5036504;28;20232;-89
2021/05/03 13:55:43;;;;;;;1.47;1.10;;;8.50;99.90;;;;;;5034730;28;20212;-89
2021/05/03 13:58:14;;;;;;;4.13;1.33;;;8.60;99.90;;;;;;5036397;28;20274;-89